createdAt,value
2022-08-17T00:00:14.698Z,23.41
2022-08-17T00:01:12.848Z,23.36
2022-08-17T00:02:14.538Z,23.34
2022-08-17T00:03:13.604Z,23.28
2022-08-17T00:04:12.827Z,23.23
2022-08-17T00:05:13.840Z,23.21
2022-08-17T00:06:12.818Z,23.24
2022-08-17T00:07:12.816Z,23.24
2022-08-17T00:08:12.840Z,23.21
2022-08-17T00:09:12.839Z,23.25
2022-08-17T00:10:12.832Z,23.25
2022-08-17T00:11:13.858Z,23.24
2022-08-17T00:12:43.356Z,23.18
2022-08-17T00:13:12.860Z,23.18
2022-08-17T00:14:12.850Z,23.24
2022-08-17T00:15:12.859Z,23.15
2022-08-17T00:16:12.857Z,23.18
2022-08-17T00:17:13.882Z,23.15
2022-08-17T00:19:01.850Z,23.18
2022-08-17T00:19:12.875Z,23.23
2022-08-17T00:20:12.884Z,23.15
2022-08-17T00:21:12.877Z,23.17
2022-08-17T00:22:34.559Z,23.12
2022-08-17T00:23:13.890Z,23.09
2022-08-17T00:24:12.876Z,23.09
2022-08-17T00:25:12.879Z,23.06
2022-08-17T00:26:12.888Z,23.09
2022-08-17T00:27:12.893Z,23.12
2022-08-17T00:28:12.890Z,23.13
2022-08-17T00:29:19.969Z,23.12
2022-08-17T00:30:12.898Z,23.08
2022-08-17T00:31:12.903Z,23.17
2022-08-17T00:33:12.286Z,23.08
2022-08-17T00:33:16.433Z,23.10
2022-08-17T00:34:12.919Z,23.13
2022-08-17T00:35:13.923Z,23.08
2022-08-17T00:36:12.931Z,23.10
2022-08-17T00:37:12.936Z,23.12
2022-08-17T00:38:12.923Z,23.10
2022-08-17T00:39:12.958Z,23.09
2022-08-17T00:40:13.041Z,23.13
2022-08-17T00:41:13.959Z,23.09
2022-08-17T00:42:12.939Z,23.08
2022-08-17T00:43:12.944Z,23.08
2022-08-17T00:44:12.944Z,23.02
2022-08-17T00:45:12.949Z,23.02
2022-08-17T00:46:12.966Z,22.93
2022-08-17T00:47:13.995Z,23.03
2022-08-17T00:48:29.177Z,22.96
2022-08-17T00:49:12.979Z,22.96
2022-08-17T00:50:12.970Z,22.83
2022-08-17T00:51:12.962Z,22.98
2022-08-17T00:52:12.966Z,22.91
2022-08-17T00:53:13.985Z,22.84
2022-08-17T00:54:12.986Z,22.85
2022-08-17T00:55:12.975Z,22.80
2022-08-17T00:56:12.982Z,22.91
2022-08-17T00:57:12.986Z,22.91
2022-08-17T00:58:12.988Z,22.90
2022-08-17T00:59:14.012Z,22.83
2022-08-17T01:00:13.004Z,22.83
2022-08-17T01:01:13.078Z,22.76
2022-08-17T01:02:13.001Z,22.83
2022-08-17T01:03:13.011Z,22.91
2022-08-17T01:04:13.024Z,22.90
2022-08-17T01:05:14.050Z,22.91
2022-08-17T01:06:13.029Z,22.80
2022-08-17T01:07:13.020Z,22.91
2022-08-17T01:08:13.025Z,22.85
2022-08-17T01:09:13.036Z,22.93
2022-08-17T01:10:57.501Z,22.88
2022-08-17T01:11:14.042Z,22.85
2022-08-17T01:12:13.036Z,23.02
2022-08-17T01:13:13.034Z,22.91
2022-08-17T01:14:13.039Z,22.99
2022-08-17T01:15:13.041Z,22.94
2022-08-17T01:16:13.046Z,22.94
2022-08-17T01:17:14.056Z,22.90
2022-08-17T01:18:13.050Z,22.91
2022-08-17T01:19:13.053Z,22.83
2022-08-17T01:20:13.077Z,22.81
2022-08-17T01:21:13.059Z,22.81
2022-08-17T01:22:13.065Z,22.75
2022-08-17T01:23:20.478Z,22.78
2022-08-17T01:24:13.077Z,22.85
2022-08-17T01:25:13.076Z,22.75
2022-08-17T01:26:13.081Z,22.70
2022-08-17T01:27:13.072Z,22.78
2022-08-17T01:28:13.084Z,22.85
2022-08-17T01:29:14.132Z,22.83
2022-08-17T01:30:58.596Z,22.76
2022-08-17T01:31:13.103Z,22.75
2022-08-17T01:32:13.092Z,22.76
2022-08-17T01:33:13.102Z,22.78
2022-08-17T01:34:13.107Z,22.83
2022-08-17T01:35:14.149Z,22.88
2022-08-17T01:36:13.101Z,22.73
2022-08-17T01:37:13.109Z,22.80
2022-08-17T01:38:13.116Z,22.81
2022-08-17T01:39:13.115Z,22.72
2022-08-17T01:40:13.159Z,22.80
2022-08-17T01:41:14.141Z,22.75
2022-08-17T01:42:13.124Z,22.76
2022-08-17T01:43:13.136Z,22.70
2022-08-17T01:44:13.140Z,22.73
2022-08-17T01:45:13.167Z,22.65
2022-08-17T01:46:13.171Z,22.63
2022-08-17T01:47:14.149Z,22.76
2022-08-17T01:48:13.140Z,22.72
2022-08-17T01:49:13.144Z,22.72
2022-08-17T01:50:13.146Z,22.70
2022-08-17T01:51:13.164Z,22.68
2022-08-17T01:52:13.161Z,22.60
2022-08-17T01:53:14.174Z,22.65
2022-08-17T01:54:13.166Z,22.66
2022-08-17T01:55:13.171Z,22.65
2022-08-17T01:56:13.178Z,22.69
2022-08-17T01:57:13.226Z,22.65
2022-08-17T01:58:13.175Z,22.63
2022-08-17T01:59:14.220Z,22.72
2022-08-17T02:00:13.171Z,22.63
2022-08-17T02:01:13.217Z,22.62
2022-08-17T02:02:13.187Z,22.59
2022-08-17T02:03:13.191Z,22.57
2022-08-17T02:04:13.181Z,22.66
2022-08-17T02:05:14.201Z,22.54
2022-08-17T02:06:27.106Z,22.62
2022-08-17T02:07:13.195Z,22.60
2022-08-17T02:08:20.116Z,22.57
2022-08-17T02:09:17.046Z,22.57
2022-08-17T02:10:20.148Z,22.55
2022-08-17T02:11:14.217Z,22.59
2022-08-17T02:12:37.603Z,22.60
2022-08-17T02:13:13.213Z,22.53
2022-08-17T02:14:13.213Z,22.55
2022-08-17T02:15:13.223Z,22.55
2022-08-17T02:16:13.221Z,22.53
2022-08-17T02:17:14.241Z,22.48
2022-08-17T02:18:13.230Z,22.50
2022-08-17T02:19:13.273Z,22.48
2022-08-17T02:20:13.238Z,22.41
2022-08-17T02:21:13.239Z,22.45
2022-08-17T02:22:13.256Z,22.44
2022-08-17T02:23:14.250Z,22.41
2022-08-17T02:24:13.244Z,22.39
2022-08-17T02:25:13.243Z,22.39
2022-08-17T02:26:25.949Z,22.41
2022-08-17T02:27:13.261Z,22.36
2022-08-17T02:28:13.256Z,22.29
2022-08-17T02:29:14.269Z,22.33
2022-08-17T02:31:01.156Z,22.33
2022-08-17T02:31:13.268Z,22.47
2022-08-17T02:32:13.278Z,22.38
2022-08-17T02:33:13.278Z,22.36
2022-08-17T02:34:13.273Z,22.36
2022-08-17T02:35:14.294Z,22.48
2022-08-17T02:36:13.286Z,22.41
2022-08-17T02:37:13.285Z,22.38
2022-08-17T02:38:13.278Z,22.41
2022-08-17T02:39:13.287Z,22.26
2022-08-17T02:40:13.340Z,22.28
2022-08-17T02:41:14.311Z,22.30
2022-08-17T02:42:13.300Z,22.41
2022-08-17T02:43:13.305Z,22.28
2022-08-17T02:44:13.300Z,22.36
2022-08-17T02:45:13.316Z,22.35
2022-08-17T02:46:13.311Z,22.26
2022-08-17T02:47:14.316Z,22.23
2022-08-17T02:48:13.308Z,22.47
2022-08-17T02:49:13.311Z,22.35
2022-08-17T02:50:13.312Z,22.30
2022-08-17T02:51:13.318Z,22.32
2022-08-17T02:52:13.332Z,22.39
2022-08-17T02:53:14.347Z,22.38
2022-08-17T02:54:40.818Z,22.39
2022-08-17T02:55:13.336Z,22.29
2022-08-17T02:56:13.331Z,22.23
2022-08-17T02:57:13.349Z,22.30
2022-08-17T02:58:13.338Z,22.26
2022-08-17T02:59:14.361Z,22.26
2022-08-17T03:00:13.346Z,22.26
2022-08-17T03:01:13.417Z,22.30
2022-08-17T03:02:13.364Z,22.29
2022-08-17T03:03:13.349Z,22.20
2022-08-17T03:04:13.354Z,22.25
2022-08-17T03:05:14.371Z,22.28
2022-08-17T03:06:13.358Z,22.26
2022-08-17T03:07:13.384Z,22.29
2022-08-17T03:08:13.532Z,22.33
2022-08-17T03:09:13.404Z,22.26
2022-08-17T03:10:13.372Z,22.26
2022-08-17T03:11:14.380Z,22.28
2022-08-17T03:12:13.373Z,22.23
2022-08-17T03:13:13.372Z,22.26
2022-08-17T03:14:13.376Z,22.17
2022-08-17T03:15:13.380Z,22.23
2022-08-17T03:16:13.379Z,22.18
2022-08-17T03:17:17.356Z,22.15
2022-08-17T03:18:18.859Z,22.20
2022-08-17T03:19:13.394Z,22.15
2022-08-17T03:20:13.391Z,22.10
2022-08-17T03:21:13.404Z,22.13
2022-08-17T03:22:36.165Z,22.14
2022-08-17T03:23:14.422Z,22.18
2022-08-17T03:24:13.408Z,22.20
2022-08-17T03:25:13.427Z,22.11
2022-08-17T03:26:15.487Z,22.13
2022-08-17T03:27:13.432Z,22.13
2022-08-17T03:28:13.426Z,22.13
2022-08-17T03:29:14.432Z,22.08
2022-08-17T03:30:13.439Z,22.06
2022-08-17T03:31:13.425Z,22.06
2022-08-17T03:32:13.426Z,22.08
2022-08-17T03:33:13.432Z,22.13
2022-08-17T03:34:13.439Z,22.02
2022-08-17T03:35:14.477Z,22.07
2022-08-17T03:36:13.450Z,21.99
2022-08-17T03:37:13.441Z,22.08
2022-08-17T03:38:15.243Z,22.04
2022-08-17T03:39:13.451Z,22.07
2022-08-17T03:40:13.490Z,22.07
2022-08-17T03:41:14.478Z,22.06
2022-08-17T03:42:31.190Z,22.02
2022-08-17T03:43:13.488Z,21.98
2022-08-17T03:44:13.460Z,22.00
2022-08-17T03:45:15.519Z,22.02
2022-08-17T03:46:29.040Z,21.99
2022-08-17T03:47:14.513Z,21.96
2022-08-17T03:48:13.489Z,21.92
2022-08-17T03:49:13.491Z,21.95
2022-08-17T03:50:13.473Z,21.96
2022-08-17T03:51:14.879Z,21.91
2022-08-17T03:52:13.480Z,21.99
2022-08-17T03:53:14.490Z,21.99
2022-08-17T03:54:13.478Z,21.99
2022-08-17T03:55:13.486Z,21.96
2022-08-17T03:56:13.488Z,22.07
2022-08-17T03:57:13.529Z,22.04
2022-08-17T03:58:13.499Z,22.06
2022-08-17T03:59:20.945Z,22.02
2022-08-17T04:00:13.514Z,22.06
2022-08-17T04:01:13.544Z,21.98
2022-08-17T04:02:13.501Z,22.00
2022-08-17T04:03:13.510Z,22.00
2022-08-17T04:04:13.507Z,21.98
2022-08-17T04:05:14.544Z,22.02
2022-08-17T04:06:13.509Z,21.93
2022-08-17T04:07:13.519Z,21.92
2022-08-17T04:08:13.521Z,21.92
2022-08-17T04:09:13.555Z,21.93
2022-08-17T04:10:13.523Z,21.95
2022-08-17T04:11:14.541Z,21.92
2022-08-17T04:12:13.530Z,21.92
2022-08-17T04:13:13.528Z,21.91
2022-08-17T04:14:13.537Z,21.98
2022-08-17T04:15:13.534Z,21.89
2022-08-17T04:16:13.534Z,21.96
2022-08-17T04:17:14.560Z,21.96
2022-08-17T04:18:13.547Z,21.95
2022-08-17T04:19:13.549Z,21.99
2022-08-17T04:20:13.554Z,22.00
2022-08-17T04:21:13.563Z,22.06
2022-08-17T04:22:31.454Z,22.02
2022-08-17T04:23:14.562Z,22.04
2022-08-17T04:24:13.568Z,22.00
2022-08-17T04:25:13.568Z,22.00
2022-08-17T04:26:53.456Z,21.99
2022-08-17T04:27:13.581Z,21.99
2022-08-17T04:28:16.195Z,21.93
2022-08-17T04:29:14.592Z,21.92
2022-08-17T04:30:13.589Z,22.06
2022-08-17T04:31:13.598Z,22.00
2022-08-17T04:32:13.616Z,22.02
2022-08-17T04:33:13.825Z,22.02
2022-08-17T04:34:13.593Z,22.00
2022-08-17T04:35:14.601Z,22.00
2022-08-17T04:36:13.595Z,22.00
2022-08-17T04:37:13.594Z,21.98
2022-08-17T04:38:13.594Z,21.98
2022-08-17T04:39:13.594Z,22.02
2022-08-17T04:40:13.626Z,21.98
2022-08-17T04:41:14.616Z,22.02
2022-08-17T04:42:13.617Z,22.02
2022-08-17T04:43:13.620Z,22.10
2022-08-17T04:44:13.625Z,22.04
2022-08-17T04:45:13.623Z,22.07
2022-08-17T04:46:13.636Z,22.11
2022-08-17T04:47:14.632Z,22.14
2022-08-17T04:48:13.628Z,22.17
2022-08-17T04:49:13.652Z,22.18
2022-08-17T04:50:13.625Z,22.25
2022-08-17T04:51:13.628Z,22.22
2022-08-17T04:52:29.675Z,22.26
2022-08-17T04:53:14.644Z,22.29
2022-08-17T04:54:13.641Z,22.23
2022-08-17T04:55:13.652Z,22.36
2022-08-17T04:56:16.758Z,22.35
2022-08-17T04:57:13.652Z,22.36
2022-08-17T04:58:13.647Z,22.45
2022-08-17T04:59:14.658Z,22.47
2022-08-17T05:00:13.651Z,22.43
2022-08-17T05:01:13.728Z,22.45
2022-08-17T05:02:13.668Z,22.47
2022-08-17T05:03:13.668Z,22.59
2022-08-17T05:04:19.919Z,22.55
2022-08-17T05:05:14.680Z,22.63
2022-08-17T05:06:13.668Z,22.55
2022-08-17T05:07:13.684Z,22.63
2022-08-17T05:08:13.674Z,22.72
2022-08-17T05:09:13.682Z,22.75
2022-08-17T05:10:13.804Z,22.65
2022-08-17T05:11:14.712Z,22.55
2022-08-17T05:12:13.696Z,22.69
2022-08-17T05:13:13.694Z,22.69
2022-08-17T05:14:13.713Z,22.78
2022-08-17T05:15:13.696Z,22.81
2022-08-17T05:16:13.700Z,22.83
2022-08-17T05:17:14.723Z,22.90
2022-08-17T05:18:13.721Z,22.96
2022-08-17T05:19:13.709Z,22.98
2022-08-17T05:20:13.728Z,23.00
2022-08-17T05:21:13.729Z,23.03
2022-08-17T05:22:13.741Z,23.13
2022-08-17T05:23:14.773Z,23.10
2022-08-17T05:24:39.172Z,23.20
2022-08-17T05:25:13.736Z,23.20
2022-08-17T05:26:22.550Z,23.24
2022-08-17T05:27:17.782Z,23.36
2022-08-17T05:28:13.751Z,23.36
2022-08-17T05:29:14.762Z,23.44
2022-08-17T05:30:13.758Z,23.44
2022-08-17T05:31:13.754Z,23.41
2022-08-17T05:32:38.059Z,23.54
2022-08-17T05:33:13.763Z,23.50
2022-08-17T05:34:13.766Z,23.61
2022-08-17T05:35:14.783Z,23.56
2022-08-17T05:36:43.483Z,23.55
2022-08-17T05:37:13.773Z,23.58
2022-08-17T05:38:13.770Z,23.59
2022-08-17T05:39:16.643Z,23.58
2022-08-17T05:40:13.779Z,23.61
2022-08-17T05:41:14.843Z,23.58
2022-08-17T05:42:13.807Z,23.62
2022-08-17T05:43:13.793Z,23.65
2022-08-17T05:44:13.801Z,23.68
2022-08-17T05:45:13.802Z,23.63
2022-08-17T05:46:13.809Z,23.69
2022-08-17T05:47:14.846Z,23.74
2022-08-17T05:48:13.815Z,23.77
2022-08-17T05:49:13.813Z,23.91
2022-08-17T05:50:13.821Z,23.87
2022-08-17T05:51:13.823Z,23.83
2022-08-17T05:52:13.836Z,23.98
2022-08-17T05:53:14.888Z,24.03
2022-08-17T05:54:13.839Z,24.11
2022-08-17T05:55:13.842Z,24.10
2022-08-17T05:56:29.753Z,24.10
2022-08-17T05:57:13.849Z,24.18
2022-08-17T05:58:13.852Z,24.16
2022-08-17T05:59:14.871Z,24.17
2022-08-17T06:00:13.881Z,24.24
2022-08-17T06:01:13.928Z,24.23
2022-08-17T06:02:13.880Z,24.28
2022-08-17T06:03:13.876Z,24.35
2022-08-17T06:04:13.882Z,24.40
2022-08-17T06:05:14.903Z,24.38
2022-08-17T06:06:13.935Z,24.42
2022-08-17T06:07:13.904Z,24.51
2022-08-17T06:08:13.909Z,24.58
2022-08-17T06:09:13.913Z,24.55
2022-08-17T06:10:13.926Z,24.55
2022-08-17T06:11:14.931Z,24.54
2022-08-17T06:12:18.912Z,24.74
2022-08-17T06:13:13.936Z,24.81
2022-08-17T06:14:13.971Z,24.89
2022-08-17T06:15:13.962Z,24.98
2022-08-17T06:16:33.740Z,25.01
2022-08-17T06:17:15.000Z,25.14
2022-08-17T06:18:18.915Z,25.13
2022-08-17T06:19:14.021Z,25.25
2022-08-17T06:20:13.998Z,25.28
2022-08-17T06:21:13.999Z,25.41
2022-08-17T06:22:14.017Z,25.51
2022-08-17T06:23:15.051Z,25.51
2022-08-17T06:24:14.045Z,25.70
2022-08-17T06:25:14.037Z,25.85
2022-08-17T06:26:14.060Z,25.98
2022-08-17T06:27:14.063Z,26.22
2022-08-17T06:28:14.193Z,26.10
2022-08-17T06:29:18.673Z,26.29
2022-08-17T06:30:14.105Z,26.44
2022-08-17T06:31:14.144Z,26.52
2022-08-17T06:32:14.126Z,26.73
2022-08-17T06:33:14.177Z,26.71
2022-08-17T06:34:14.151Z,26.81
2022-08-17T06:35:15.186Z,26.84
2022-08-17T06:36:14.616Z,26.90
2022-08-17T06:37:14.184Z,27.12
2022-08-17T06:38:33.944Z,27.21
2022-08-17T06:39:14.215Z,27.42
2022-08-17T06:40:14.286Z,27.49
2022-08-17T06:41:15.253Z,27.54
2022-08-17T06:43:04.045Z,27.51
2022-08-17T06:43:14.672Z,27.70
2022-08-17T06:44:49.746Z,27.78
2022-08-17T06:45:14.289Z,27.83
2022-08-17T06:46:14.305Z,27.89
2022-08-17T06:47:15.335Z,28.01
2022-08-17T06:48:14.330Z,28.00
2022-08-17T06:49:14.338Z,28.10
2022-08-17T06:50:14.388Z,28.19
2022-08-17T06:51:14.367Z,28.41
2022-08-17T06:52:37.091Z,28.52
2022-08-17T06:53:15.401Z,28.59
2022-08-17T06:54:14.412Z,28.67
2022-08-17T06:55:18.631Z,28.78
2022-08-17T06:56:14.474Z,28.96
2022-08-17T06:57:14.460Z,29.01
2022-08-17T06:58:16.563Z,29.10
2022-08-17T06:59:15.500Z,29.17
2022-08-17T07:00:14.500Z,29.29
2022-08-17T07:01:14.630Z,29.42
2022-08-17T07:02:14.540Z,29.45
2022-08-17T07:03:14.546Z,29.45
2022-08-17T07:04:14.565Z,29.51
2022-08-17T07:05:15.599Z,29.57
2022-08-17T07:06:14.677Z,29.73
2022-08-17T07:07:14.613Z,29.72
2022-08-17T07:08:14.673Z,29.78
2022-08-17T07:09:14.661Z,29.91
2022-08-17T07:10:14.679Z,29.87
2022-08-17T07:11:15.691Z,29.95
2022-08-17T07:12:14.691Z,29.98
2022-08-17T07:13:14.745Z,30.09
2022-08-17T07:14:17.341Z,30.08
2022-08-17T07:15:14.744Z,30.05
2022-08-17T07:16:14.787Z,30.00
2022-08-17T07:17:15.799Z,30.06
2022-08-17T07:18:14.844Z,30.09
2022-08-17T07:19:14.831Z,30.06
2022-08-17T07:20:14.830Z,30.00
2022-08-17T07:21:17.652Z,29.95
2022-08-17T07:22:14.884Z,29.91
2022-08-17T07:23:15.937Z,29.79
2022-08-17T07:24:26.064Z,29.79
2022-08-17T07:25:16.051Z,29.75
2022-08-17T07:26:14.942Z,29.79
2022-08-17T07:27:14.959Z,29.87
2022-08-17T07:28:14.972Z,29.81
2022-08-17T07:29:15.999Z,29.91
2022-08-17T07:30:15.001Z,29.95
2022-08-17T07:31:15.015Z,30.05
2022-08-17T07:32:15.062Z,30.09
2022-08-17T07:33:15.043Z,30.18
2022-08-17T07:34:15.061Z,30.18
2022-08-17T07:35:16.120Z,30.25
2022-08-17T07:36:15.093Z,30.30
2022-08-17T07:37:15.114Z,30.24
2022-08-17T07:38:24.708Z,30.37
2022-08-17T07:39:15.149Z,30.40
2022-08-17T07:40:16.828Z,30.39
2022-08-17T07:41:16.182Z,30.48
2022-08-17T07:42:15.197Z,30.51
2022-08-17T07:43:22.358Z,30.46
2022-08-17T07:44:15.227Z,30.54
2022-08-17T07:45:15.238Z,30.69
2022-08-17T07:46:15.300Z,30.69
2022-08-17T07:47:16.289Z,30.81
2022-08-17T07:48:15.728Z,30.90
2022-08-17T07:49:15.324Z,30.87
2022-08-17T07:50:15.332Z,30.85
2022-08-17T07:51:15.352Z,30.91
2022-08-17T07:52:48.227Z,30.94
2022-08-17T07:53:16.398Z,31.09
2022-08-17T07:54:15.534Z,31.09
2022-08-17T07:55:15.413Z,31.12
2022-08-17T07:56:15.445Z,31.05
2022-08-17T07:57:15.452Z,31.12
2022-08-17T07:58:15.470Z,31.05
2022-08-17T07:59:17.999Z,31.14
2022-08-17T08:00:16.400Z,31.05
2022-08-17T08:01:17.777Z,31.05
2022-08-17T08:02:15.632Z,31.06
2022-08-17T08:03:17.999Z,31.07
2022-08-17T08:04:19.419Z,31.02
2022-08-17T08:05:30.813Z,31.17
2022-08-17T08:06:15.612Z,31.18
2022-08-17T08:07:15.623Z,31.17
2022-08-17T08:08:15.640Z,31.18
2022-08-17T08:09:15.663Z,31.21
2022-08-17T08:10:15.686Z,31.14
2022-08-17T08:11:16.701Z,31.07
2022-08-17T08:12:15.940Z,31.05
2022-08-17T08:13:15.726Z,31.10
2022-08-17T08:14:16.568Z,31.12
2022-08-17T08:15:16.503Z,30.97
2022-08-17T08:16:16.567Z,31.02
2022-08-17T08:17:18.000Z,31.00
2022-08-17T08:18:16.573Z,31.06
2022-08-17T08:19:20.549Z,31.02
2022-08-17T08:20:52.288Z,31.03
2022-08-17T08:21:15.856Z,31.03
2022-08-17T08:22:15.876Z,31.12
2022-08-17T08:23:16.941Z,31.15
2022-08-17T08:24:15.908Z,31.07
2022-08-17T08:25:15.923Z,31.10
2022-08-17T08:26:18.596Z,31.09
2022-08-17T08:27:15.952Z,31.06
2022-08-17T08:28:15.964Z,31.06
2022-08-17T08:29:18.010Z,31.07
2022-08-17T08:30:16.517Z,31.09
2022-08-17T08:31:16.007Z,31.06
2022-08-17T08:32:20.119Z,31.20
2022-08-17T08:33:16.148Z,31.15
2022-08-17T08:34:45.434Z,31.20
2022-08-17T08:35:17.083Z,31.27
2022-08-17T08:37:14.954Z,31.17
2022-08-17T08:37:20.830Z,31.15
2022-08-17T08:38:16.140Z,31.29
2022-08-17T08:39:16.120Z,31.33
2022-08-17T08:40:16.202Z,31.25
2022-08-17T08:41:17.147Z,31.34
2022-08-17T08:42:16.143Z,31.31
2022-08-17T08:43:16.160Z,31.34
2022-08-17T08:44:16.198Z,31.37
2022-08-17T08:45:16.239Z,31.34
2022-08-17T08:46:16.189Z,31.34
2022-08-17T08:47:17.215Z,31.43
2022-08-17T08:48:45.915Z,31.47
2022-08-17T08:49:16.230Z,31.31
2022-08-17T08:50:36.890Z,31.40
2022-08-17T08:51:16.253Z,31.34
2022-08-17T08:52:16.259Z,31.36
2022-08-17T08:53:18.035Z,31.33
2022-08-17T08:54:17.556Z,31.28
2022-08-17T08:55:16.300Z,31.14
2022-08-17T08:56:16.333Z,31.18
2022-08-17T08:57:28.069Z,31.22
2022-08-17T08:58:31.478Z,31.29
2022-08-17T08:59:17.385Z,31.28
2022-08-17T09:00:16.378Z,31.36
2022-08-17T09:01:17.025Z,31.27
2022-08-17T09:02:16.385Z,31.29
2022-08-17T09:03:16.393Z,31.31
2022-08-17T09:04:24.734Z,31.34
2022-08-17T09:05:17.410Z,31.27
2022-08-17T09:06:33.339Z,31.28
2022-08-17T09:07:16.420Z,31.28
2022-08-17T09:08:16.445Z,31.36
2022-08-17T09:09:16.472Z,31.31
2022-08-17T09:10:16.691Z,31.31
2022-08-17T09:11:17.696Z,31.25
2022-08-17T09:12:16.500Z,31.28
2022-08-17T09:13:16.501Z,31.29
2022-08-17T09:14:21.010Z,31.28
2022-08-17T09:15:16.694Z,31.31
2022-08-17T09:16:16.542Z,31.34
2022-08-17T09:19:03.101Z,31.29
2022-08-17T09:19:16.912Z,31.20
2022-08-17T09:20:27.183Z,31.28
2022-08-17T09:21:18.091Z,31.29
2022-08-17T09:22:16.778Z,31.28
2022-08-17T09:24:20.741Z,31.27
2022-08-17T09:25:19.861Z,31.21
2022-08-17T09:26:19.869Z,31.17
2022-08-17T09:27:19.876Z,31.14
2022-08-17T09:28:19.873Z,31.17
2022-08-17T09:29:19.891Z,31.15
2022-08-17T09:30:19.904Z,31.14
2022-08-17T09:31:19.895Z,31.17
2022-08-17T09:32:19.905Z,31.03
2022-08-17T09:33:19.981Z,31.07
2022-08-17T09:34:19.970Z,31.06
2022-08-17T09:35:19.938Z,31.06
2022-08-17T09:36:19.945Z,31.06
2022-08-17T09:37:20.094Z,31.06
2022-08-17T09:38:20.001Z,31.03
2022-08-17T09:39:19.986Z,31.07
2022-08-17T09:40:20.018Z,31.05
2022-08-17T09:41:20.055Z,31.05
2022-08-17T09:42:20.022Z,31.03
2022-08-17T09:43:20.010Z,30.94
2022-08-17T09:44:23.151Z,30.90
2022-08-17T09:45:20.094Z,30.91
2022-08-17T09:46:20.048Z,30.84
2022-08-17T09:47:20.071Z,30.87
2022-08-17T09:48:20.077Z,30.87
2022-08-17T09:49:25.010Z,30.91
2022-08-17T09:50:20.087Z,30.85
2022-08-17T09:51:20.111Z,30.88
2022-08-17T09:52:20.113Z,30.85
2022-08-17T09:53:20.149Z,30.85
2022-08-17T09:54:38.181Z,30.83
2022-08-17T09:55:20.141Z,30.84
2022-08-17T09:56:20.136Z,30.81
2022-08-17T09:57:31.690Z,30.84
2022-08-17T09:58:20.236Z,30.78
2022-08-17T09:59:21.776Z,30.77
2022-08-17T10:00:20.738Z,30.77
2022-08-17T10:01:20.766Z,30.77
2022-08-17T10:02:20.191Z,30.72
2022-08-17T10:03:20.205Z,30.78
2022-08-17T10:04:20.512Z,30.70
2022-08-17T10:05:20.213Z,30.75
2022-08-17T10:06:22.241Z,30.78
2022-08-17T10:07:20.247Z,30.73
2022-08-17T10:08:20.309Z,30.65
2022-08-17T10:09:20.252Z,30.72
2022-08-17T10:10:20.296Z,30.70
2022-08-17T10:11:20.267Z,30.62
2022-08-17T10:12:20.436Z,30.59
2022-08-17T10:13:20.295Z,30.59
2022-08-17T10:14:37.583Z,30.57
2022-08-17T10:15:20.329Z,30.57
2022-08-17T10:16:20.339Z,30.59
2022-08-17T10:17:20.333Z,30.57
2022-08-17T10:18:20.342Z,30.54
2022-08-17T10:19:20.340Z,30.50
2022-08-17T10:20:20.606Z,30.44
2022-08-17T10:21:20.357Z,30.48
2022-08-17T10:22:34.812Z,30.51
2022-08-17T10:23:20.376Z,30.50
2022-08-17T10:24:20.467Z,30.50
2022-08-17T10:25:23.986Z,30.51
2022-08-17T10:26:20.396Z,30.50
2022-08-17T10:27:20.460Z,30.46
2022-08-17T10:28:21.464Z,30.40
2022-08-17T10:29:20.457Z,30.51
2022-08-17T10:30:20.463Z,30.39
2022-08-17T10:31:36.406Z,30.34
2022-08-17T10:32:20.462Z,30.43
2022-08-17T10:33:20.478Z,30.43
2022-08-17T10:34:20.507Z,30.34
2022-08-17T10:35:20.515Z,30.27
2022-08-17T10:36:20.532Z,30.16
2022-08-17T10:37:20.520Z,30.21
2022-08-17T10:38:21.524Z,30.18
2022-08-17T10:39:20.524Z,30.18
2022-08-17T10:40:20.648Z,30.19
2022-08-17T10:41:20.550Z,30.16
2022-08-17T10:42:30.883Z,30.15
2022-08-17T10:43:20.568Z,30.10
2022-08-17T10:44:39.013Z,30.12
2022-08-17T10:45:20.578Z,30.15
2022-08-17T10:46:30.987Z,30.08
2022-08-17T10:47:20.593Z,30.10
2022-08-17T10:48:20.594Z,30.06
2022-08-17T10:49:20.637Z,30.06
2022-08-17T10:50:20.620Z,30.09
2022-08-17T10:51:20.624Z,30.03
2022-08-17T10:52:20.699Z,29.97
2022-08-17T10:53:20.643Z,29.93
2022-08-17T10:54:20.661Z,30.02
2022-08-17T10:55:20.668Z,29.91
2022-08-17T10:56:20.664Z,29.87
2022-08-17T10:57:20.682Z,29.87
2022-08-17T10:58:20.692Z,29.86
2022-08-17T10:59:20.691Z,29.87
2022-08-17T11:00:24.288Z,29.87
2022-08-17T11:01:20.758Z,29.87
2022-08-17T11:02:20.730Z,29.95
2022-08-17T11:03:20.724Z,29.88
2022-08-17T11:04:20.751Z,29.91
2022-08-17T11:05:20.742Z,29.94
2022-08-17T11:06:20.773Z,29.94
2022-08-17T11:07:20.759Z,30.03
2022-08-17T11:08:20.813Z,30.06
2022-08-17T11:09:20.791Z,30.03
2022-08-17T11:10:20.794Z,30.00
2022-08-17T11:11:20.894Z,30.00
2022-08-17T11:12:20.849Z,30.00
2022-08-17T11:13:20.821Z,29.98
2022-08-17T11:14:20.830Z,30.05
2022-08-17T11:15:20.828Z,30.09
2022-08-17T11:16:20.897Z,30.08
2022-08-17T11:17:20.862Z,29.98
2022-08-17T11:18:20.859Z,30.09
2022-08-17T11:19:20.875Z,30.09
2022-08-17T11:20:20.980Z,30.12
2022-08-17T11:21:20.916Z,30.05
2022-08-17T11:22:20.895Z,29.97
2022-08-17T11:23:20.909Z,29.95
2022-08-17T11:24:21.147Z,29.91
2022-08-17T11:25:20.937Z,29.98
2022-08-17T11:26:20.942Z,30.00
2022-08-17T11:27:20.948Z,29.88
2022-08-17T11:28:20.960Z,29.95
2022-08-17T11:29:20.953Z,29.86
2022-08-17T11:30:20.998Z,29.88
2022-08-17T11:31:20.978Z,29.86
2022-08-17T11:32:21.006Z,29.93
2022-08-17T11:33:20.999Z,29.82
2022-08-17T11:34:20.997Z,29.90
2022-08-17T11:35:21.005Z,29.84
2022-08-17T11:36:21.017Z,29.90
2022-08-17T11:37:21.022Z,29.84
2022-08-17T11:38:21.038Z,29.86
2022-08-17T11:39:21.029Z,29.84
2022-08-17T11:40:21.160Z,29.81
2022-08-17T11:41:21.105Z,29.78
2022-08-17T11:42:21.060Z,29.91
2022-08-17T11:43:21.081Z,29.88
2022-08-17T11:44:21.069Z,29.98
2022-08-17T11:45:31.662Z,29.91
2022-08-17T11:46:21.093Z,29.95
2022-08-17T11:47:21.098Z,30.05
2022-08-17T11:48:28.448Z,30.03
2022-08-17T11:49:21.114Z,30.08
2022-08-17T11:50:25.727Z,30.10
2022-08-17T11:51:21.133Z,30.16
2022-08-17T11:52:21.388Z,30.24
2022-08-17T11:53:21.155Z,30.30
2022-08-17T11:54:32.707Z,30.25
2022-08-17T11:55:35.449Z,30.31
2022-08-17T11:56:21.264Z,30.30
2022-08-17T11:57:21.273Z,30.28
2022-08-17T11:58:21.207Z,30.27
2022-08-17T11:59:21.206Z,30.27
2022-08-17T12:00:21.235Z,30.23
2022-08-17T12:01:21.224Z,30.18
2022-08-17T12:02:21.256Z,30.13
2022-08-17T12:03:21.291Z,30.21
2022-08-17T12:04:21.299Z,30.19
2022-08-17T12:05:21.324Z,30.18
2022-08-17T12:06:21.280Z,30.21
2022-08-17T12:07:21.301Z,30.18
2022-08-17T12:08:21.298Z,30.13
2022-08-17T12:09:21.314Z,30.18
2022-08-17T12:10:21.313Z,30.13
2022-08-17T12:11:56.359Z,30.13
2022-08-17T12:12:21.325Z,30.09
2022-08-17T12:13:21.352Z,30.06
2022-08-17T12:14:29.397Z,30.05
2022-08-17T12:15:21.361Z,29.98
2022-08-17T12:16:21.353Z,29.98
2022-08-17T12:17:34.697Z,29.95
2022-08-17T12:18:21.367Z,30.00
2022-08-17T12:19:21.381Z,29.93
2022-08-17T12:20:21.394Z,29.98
2022-08-17T12:21:21.400Z,30.02
2022-08-17T12:22:21.407Z,30.03
2022-08-17T12:23:21.419Z,30.06
2022-08-17T12:24:21.448Z,30.02
2022-08-17T12:25:21.428Z,30.12
2022-08-17T12:26:21.445Z,30.06
2022-08-17T12:27:21.446Z,30.10
2022-08-17T12:28:21.870Z,30.08
2022-08-17T12:29:35.727Z,30.10
2022-08-17T12:30:21.488Z,30.09
2022-08-17T12:31:21.484Z,30.18
2022-08-17T12:32:21.489Z,30.13
2022-08-17T12:33:25.389Z,30.18
2022-08-17T12:34:21.504Z,30.10
2022-08-17T12:35:21.516Z,30.10
2022-08-17T12:36:21.523Z,30.12
2022-08-17T12:37:21.564Z,30.09
2022-08-17T12:38:31.814Z,30.08
2022-08-17T12:39:21.633Z,30.10
2022-08-17T12:40:21.565Z,30.10
2022-08-17T12:41:21.577Z,30.12
2022-08-17T12:42:21.587Z,30.15
2022-08-17T12:43:21.590Z,30.15
2022-08-17T12:44:21.602Z,30.15
2022-08-17T12:45:21.643Z,30.19
2022-08-17T12:46:21.682Z,30.16
2022-08-17T12:47:22.980Z,30.16
2022-08-17T12:48:21.631Z,30.15
2022-08-17T12:49:21.658Z,30.12
2022-08-17T12:50:29.192Z,30.16
2022-08-17T12:51:21.658Z,30.13
2022-08-17T12:52:21.668Z,30.16
2022-08-17T12:53:21.693Z,30.16
2022-08-17T12:54:21.679Z,30.10